Time;durP1;ratioP1;P1;durP2;ratioP2;P2;SDS_P1;SDS_P2;PMS_P1;PMS_P2;Temp;Humidity;BMP_temperature;BMP_pressure;BME280_temperature;BME280_humidity;BME280_pressure;Samples;Min_cycle;Max_cycle;Signal;HPM_P1;HPM_P2
2023/12/19 00:01:47;;;;;;;;;24.67;19.33;;;;;;;;5087284;27;45430;-67
2023/12/19 00:04:13;;;;;;;;;24.75;22.00;;;;;;;;5081691;27;45405;-68
2023/12/19 00:06:38;;;;;;;;;24.75;23.25;;;;;;;;5088470;27;45612;-66
2023/12/19 00:09:03;;;;;;;;;24.00;23.00;;;;;;;;5083945;27;46856;-68
2023/12/19 00:11:29;;;;;;;;;25.33;17.00;;;;;;;;5094981;27;45366;-69
2023/12/19 00:13:54;;;;;;;;;21.33;18.00;;;;;;;;5088575;27;45440;-67
2023/12/19 00:16:19;;;;;;;;;25.00;16.00;;;;;;;;5096790;27;45561;-67
2023/12/19 00:18:44;;;;;;;;;25.75;20.25;;;;;;;;5096043;27;45367;-67
2023/12/19 00:21:10;;;;;;;;;17.33;14.67;;;;;;;;5096767;27;45352;-67
2023/12/19 00:23:35;;;;;;;;;25.67;22.33;;;;;;;;5092407;27;45474;-70
2023/12/19 00:26:00;;;;;;;;;17.33;14.33;;;;;;;;5099626;27;45524;-66
2023/12/19 00:28:27;;;;;;;;;25.67;20.33;;;;;;;;5099687;27;46770;-67
2023/12/19 00:30:52;;;;;;;;;23.50;17.75;;;;;;;;5096366;27;45429;-69
2023/12/19 00:33:18;;;;;;;;;17.25;17.25;;;;;;;;5092198;27;45416;-67
2023/12/19 00:35:43;;;;;;;;;21.00;15.75;;;;;;;;5096187;27;45303;-67
2023/12/19 00:38:08;;;;;;;;;18.75;13.25;;;;;;;;5093907;27;45741;-67
2023/12/19 00:40:33;;;;;;;;;17.00;17.00;;;;;;;;5093980;27;45207;-67
2023/12/19 00:42:58;;;;;;;;;17.75;14.00;;;;;;;;5095534;27;45550;-67
2023/12/19 00:45:24;;;;;;;;;21.00;15.67;;;;;;;;5092272;27;45516;-67
2023/12/19 00:47:49;;;;;;;;;16.00;14.75;;;;;;;;5098116;27;46663;-67
2023/12/19 00:50:15;;;;;;;;;22.33;20.00;;;;;;;;5097217;27;45437;-68
2023/12/19 00:52:41;;;;;;;;;23.75;18.00;;;;;;;;5097866;27;46178;-69
2023/12/19 00:55:06;;;;;;;;;26.50;19.00;;;;;;;;5087416;27;45462;-68
2023/12/19 00:57:32;;;;;;;;;21.33;14.00;;;;;;;;5096613;27;46268;-67
2023/12/19 00:59:57;;;;;;;;;23.50;20.25;;;;;;;;5085331;27;45289;-67
2023/12/19 01:02:23;;;;;;;;;27.00;18.67;;;;;;;;5098149;27;45509;-67
2023/12/19 01:04:48;;;;;;;;;23.50;21.25;;;;;;;;5099316;27;45424;-67
2023/12/19 01:07:13;;;;;;;;;18.00;14.33;;;;;;;;5099167;27;45583;-67
2023/12/19 01:09:38;;;;;;;;;22.50;16.50;;;;;;;;5091846;27;45413;-67
2023/12/19 01:12:03;;;;;;;;;20.00;16.00;;;;;;;;5097297;27;45258;-68
2023/12/19 01:14:28;;;;;;;;;20.00;15.50;;;;;;;;5107517;27;45557;-67
2023/12/19 01:16:54;;;;;;;;;21.67;16.33;;;;;;;;5098700;27;46635;-65
2023/12/19 01:19:19;;;;;;;;;25.50;20.00;;;;;;;;5096875;27;45476;-67
2023/12/19 01:21:44;;;;;;;;;18.00;18.00;;;;;;;;5110908;27;45394;-68
2023/12/19 01:24:09;;;;;;;;;19.00;16.00;;;;;;;;5099532;27;45436;-67
2023/12/19 01:26:34;;;;;;;;;24.50;17.75;;;;;;;;5087935;27;45786;-70
2023/12/19 01:29:00;;;;;;;;;19.00;15.67;;;;;;;;5081578;27;45325;-67
2023/12/19 01:31:25;;;;;;;;;24.75;20.75;;;;;;;;5097744;27;45258;-67
2023/12/19 01:33:51;;;;;;;;;23.67;17.00;;;;;;;;5095646;27;45532;-68
2023/12/19 01:36:16;;;;;;;;;24.75;17.25;;;;;;;;5099244;27;48530;-69
2023/12/19 01:38:41;;;;;;;;;22.50;16.00;;;;;;;;5088535;27;45452;-67
2023/12/19 01:41:06;;;;;;;;;22.67;19.00;;;;;;;;5091635;27;45412;-69
2023/12/19 01:43:32;;;;;;;;;20.00;19.50;;;;;;;;5103693;27;45398;-68
2023/12/19 01:45:57;;;;;;;;;20.00;17.33;;;;;;;;5097288;27;47573;-71
2023/12/19 01:48:23;;;;;;;;;23.33;15.33;;;;;;;;5099019;27;45425;-66
2023/12/19 01:50:48;;;;;;;;;22.00;17.25;;;;;;;;5097848;27;45182;-67
2023/12/19 01:53:13;;;;;;;;;23.00;18.25;;;;;;;;5086205;27;45674;-67
2023/12/19 01:55:39;;;;;;;;;23.00;16.00;;;;;;;;5099119;27;45811;-70
2023/12/19 01:58:06;;;;;;;;;20.50;16.50;;;;;;;;5092513;27;45454;-67
2023/12/19 02:00:31;;;;;;;;;19.75;14.50;;;;;;;;5098931;27;45440;-69
2023/12/19 02:02:57;;;;;;;;;27.25;20.25;;;;;;;;5098410;27;45370;-67
2023/12/19 02:05:23;;;;;;;;;22.00;16.00;;;;;;;;5096719;27;45508;-67
2023/12/19 02:07:48;;;;;;;;;17.25;15.25;;;;;;;;5085557;27;45448;-66
2023/12/19 02:10:15;;;;;;;;;27.25;19.00;;;;;;;;5087645;27;45270;-68
2023/12/19 02:12:40;;;;;;;;;18.25;16.00;;;;;;;;5088802;27;45627;-67
2023/12/19 02:15:06;;;;;;;;;26.75;17.00;;;;;;;;5092300;27;45837;-67
2023/12/19 02:17:31;;;;;;;;;21.75;18.25;;;;;;;;5085446;27;45444;-68
2023/12/19 02:19:57;;;;;;;;;20.00;18.00;;;;;;;;5096606;27;45251;-67
2023/12/19 02:22:22;;;;;;;;;16.25;15.75;;;;;;;;5098995;27;45310;-67
2023/12/19 02:24:48;;;;;;;;;24.25;19.00;;;;;;;;5104220;27;45667;-66
2023/12/19 02:27:13;;;;;;;;;17.25;16.50;;;;;;;;5096935;27;45436;-67
2023/12/19 02:29:39;;;;;;;;;20.75;16.50;;;;;;;;5094430;27;45441;-66
2023/12/19 02:32:04;;;;;;;;;16.25;13.75;;;;;;;;5095946;27;45428;-68
2023/12/19 02:34:29;;;;;;;;;18.00;15.25;;;;;;;;5094016;27;46647;-66
2023/12/19 02:36:55;;;;;;;;;22.25;20.75;;;;;;;;5097887;27;45663;-68
2023/12/19 02:39:20;;;;;;;;;23.00;19.25;;;;;;;;5093501;27;45765;-67
2023/12/19 02:41:45;;;;;;;;;27.50;19.00;;;;;;;;5098113;27;45643;-67
2023/12/19 02:44:10;;;;;;;;;17.67;13.33;;;;;;;;5095326;27;45852;-67
2023/12/19 02:46:35;;;;;;;;;21.33;16.67;;;;;;;;5097038;27;45479;-67
2023/12/19 02:49:01;;;;;;;;;18.00;15.50;;;;;;;;5087070;27;45270;-67
2023/12/19 02:51:26;;;;;;;;;21.75;16.25;;;;;;;;5081719;27;45444;-66
2023/12/19 02:53:53;;;;;;;;;24.75;17.25;;;;;;;;5078798;27;46427;-67
2023/12/19 02:56:18;;;;;;;;;21.00;15.00;;;;;;;;5095727;27;45475;-67
2023/12/19 02:58:43;;;;;;;;;28.50;16.25;;;;;;;;5097720;27;45390;-67
2023/12/19 03:01:09;;;;;;;;;22.00;16.00;;;;;;;;5094426;27;45305;-67
2023/12/19 03:03:34;;;;;;;;;20.33;16.00;;;;;;;;5093395;27;46754;-67
2023/12/19 03:06:00;;;;;;;;;26.25;22.50;;;;;;;;5091160;27;45324;-67
2023/12/19 03:08:25;;;;;;;;;25.25;17.00;;;;;;;;5097428;27;45425;-67
2023/12/19 03:10:50;;;;;;;;;21.50;16.50;;;;;;;;5091128;27;45207;-67
2023/12/19 03:13:16;;;;;;;;;17.33;17.00;;;;;;;;5091022;27;45500;-66
2023/12/19 03:15:41;;;;;;;;;18.25;16.00;;;;;;;;5095345;27;45248;-67
2023/12/19 03:18:07;;;;;;;;;20.00;17.50;;;;;;;;5080681;27;45194;-67
2023/12/19 03:20:32;;;;;;;;;20.33;16.67;;;;;;;;5102670;27;45530;-68
2023/12/19 03:22:57;;;;;;;;;18.75;14.75;;;;;;;;5096807;27;46091;-67
2023/12/19 03:25:22;;;;;;;;;19.67;13.67;;;;;;;;5097298;27;45405;-69
2023/12/19 03:27:48;;;;;;;;;25.67;17.00;;;;;;;;5097739;27;45216;-69
2023/12/19 03:30:13;;;;;;;;;19.00;18.50;;;;;;;;5094515;27;45346;-67
2023/12/19 03:32:38;;;;;;;;;16.25;14.50;;;;;;;;5093351;27;46476;-67
2023/12/19 03:35:04;;;;;;;;;17.00;17.00;;;;;;;;5092515;27;45529;-67
2023/12/19 03:37:31;;;;;;;;;20.75;16.75;;;;;;;;5096385;27;45448;-69
2023/12/19 03:39:56;;;;;;;;;23.00;16.25;;;;;;;;5088297;27;45595;-67
2023/12/19 03:42:21;;;;;;;;;23.00;17.00;;;;;;;;5089454;27;46107;-67
2023/12/19 03:44:46;;;;;;;;;18.25;18.25;;;;;;;;5093654;27;45428;-67
2023/12/19 03:47:12;;;;;;;;;16.00;13.67;;;;;;;;5097062;27;45245;-67
2023/12/19 03:49:37;;;;;;;;;21.25;16.75;;;;;;;;5085338;27;45391;-69
2023/12/19 03:52:02;;;;;;;;;26.00;16.33;;;;;;;;5095735;27;47072;-67
2023/12/19 03:54:28;;;;;;;;;20.25;17.00;;;;;;;;5089764;27;45348;-69
2023/12/19 03:56:54;;;;;;;;;22.00;16.50;;;;;;;;5096967;27;45434;-67
2023/12/19 03:59:19;;;;;;;;;13.75;13.00;;;;;;;;5098520;27;45447;-69
2023/12/19 04:01:45;;;;;;;;;19.50;19.50;;;;;;;;5094546;27;47317;-67
2023/12/19 04:04:11;;;;;;;;;20.50;16.75;;;;;;;;5100428;27;45228;-67
2023/12/19 04:06:38;;;;;;;;;26.75;20.75;;;;;;;;5100158;27;45253;-67
2023/12/19 04:09:04;;;;;;;;;23.50;16.50;;;;;;;;5100061;27;45344;-67
2023/12/19 04:11:29;;;;;;;;;23.33;17.67;;;;;;;;5099537;27;45473;-67
2023/12/19 04:13:54;;;;;;;;;21.00;17.00;;;;;;;;5100201;27;45383;-65
2023/12/19 04:16:19;;;;;;;;;26.00;17.33;;;;;;;;5097036;27;45395;-70
2023/12/19 04:18:44;;;;;;;;;24.00;20.50;;;;;;;;5098735;27;45224;-67
2023/12/19 04:21:10;;;;;;;;;23.33;21.00;;;;;;;;5103990;27;45700;-67
2023/12/19 04:23:35;;;;;;;;;17.33;15.00;;;;;;;;5100331;27;45355;-66
2023/12/19 04:26:00;;;;;;;;;16.67;14.33;;;;;;;;5097970;27;45407;-67
2023/12/19 04:28:25;;;;;;;;;19.00;17.75;;;;;;;;5098985;27;45487;-69
2023/12/19 04:30:50;;;;;;;;;24.33;21.00;;;;;;;;5095015;27;45515;-67
2023/12/19 04:33:16;;;;;;;;;22.00;17.50;;;;;;;;5099457;27;45339;-67
2023/12/19 04:35:41;;;;;;;;;23.00;18.00;;;;;;;;5093847;27;45369;-67
2023/12/19 04:38:06;;;;;;;;;18.67;16.33;;;;;;;;5099160;27;45639;-67
2023/12/19 04:40:31;;;;;;;;;26.00;18.67;;;;;;;;5099789;27;46271;-68
2023/12/19 04:42:56;;;;;;;;;24.00;17.25;;;;;;;;5090736;27;47023;-67
2023/12/19 04:45:22;;;;;;;;;22.25;19.50;;;;;;;;5100066;27;45272;-67
2023/12/19 04:47:47;;;;;;;;;21.25;16.75;;;;;;;;5099254;27;45313;-69
2023/12/19 04:50:12;;;;;;;;;29.67;17.00;;;;;;;;5099760;27;45864;-67
2023/12/19 04:52:38;;;;;;;;;22.50;18.75;;;;;;;;5098651;27;46886;-70
2023/12/19 04:55:03;;;;;;;;;21.75;17.00;;;;;;;;5098060;27;45359;-67
2023/12/19 04:57:29;;;;;;;;;23.00;18.75;;;;;;;;5100060;27;45314;-66
2023/12/19 04:59:54;;;;;;;;;23.67;17.33;;;;;;;;5095574;27;46397;-69
2023/12/19 05:02:19;;;;;;;;;19.00;17.75;;;;;;;;5099240;27;45516;-69
2023/12/19 05:04:44;;;;;;;;;22.00;15.67;;;;;;;;5094992;27;45504;-67
2023/12/19 05:07:10;;;;;;;;;21.33;17.00;;;;;;;;5099461;27;45334;-69
2023/12/19 05:09:35;;;;;;;;;16.25;12.75;;;;;;;;5097415;27;47018;-66
2023/12/19 05:12:00;;;;;;;;;24.67;16.67;;;;;;;;5089466;27;45236;-66
2023/12/19 05:14:26;;;;;;;;;17.00;16.00;;;;;;;;5099631;27;45332;-66
2023/12/19 05:16:51;;;;;;;;;16.67;11.33;;;;;;;;5095491;27;45758;-69
2023/12/19 05:19:16;;;;;;;;;15.25;13.00;;;;;;;;5094931;27;45392;-67
2023/12/19 05:21:41;;;;;;;;;18.67;14.67;;;;;;;;5105934;27;45447;-70
2023/12/19 05:24:09;;;;;;;;;16.33;13.00;;;;;;;;5100116;27;45439;-68
2023/12/19 05:26:34;;;;;;;;;15.25;13.00;;;;;;;;5098907;27;45199;-69
2023/12/19 05:28:59;;;;;;;;;16.67;16.00;;;;;;;;5097491;27;46724;-67
2023/12/19 05:31:24;;;;;;;;;12.33;12.33;;;;;;;;5096851;27;45326;-67
2023/12/19 05:33:49;;;;;;;;;20.33;18.00;;;;;;;;5093488;27;45407;-67
2023/12/19 05:36:15;;;;;;;;;18.00;14.33;;;;;;;;5094822;27;45533;-67
2023/12/19 05:38:40;;;;;;;;;16.50;12.25;;;;;;;;5088201;27;46059;-69
2023/12/19 05:41:05;;;;;;;;;18.00;15.25;;;;;;;;5086282;27;45676;-69
2023/12/19 05:43:31;;;;;;;;;14.00;14.00;;;;;;;;5093206;27;45569;-66
2023/12/19 05:45:56;;;;;;;;;18.50;13.75;;;;;;;;5095765;27;45435;-67
2023/12/19 05:48:22;;;;;;;;;15.75;12.25;;;;;;;;5089188;27;45749;-67
2023/12/19 05:50:48;;;;;;;;;22.75;14.25;;;;;;;;5098173;27;45419;-67
2023/12/19 05:53:13;;;;;;;;;22.50;15.00;;;;;;;;5094976;27;45517;-67
2023/12/19 05:55:38;;;;;;;;;17.00;16.67;;;;;;;;5099115;27;45432;-66
2023/12/19 05:58:03;;;;;;;;;17.00;15.33;;;;;;;;5093860;27;47882;-67
2023/12/19 06:00:28;;;;;;;;;18.67;13.00;;;;;;;;5098340;27;45617;-67
2023/12/19 06:05:29;;;;;;;;;20.00;15.75;;;;;;;;4924077;26;45555;-69
2023/12/19 06:07:54;;;;;;;;;15.25;15.25;;;;;;;;5017395;28;46298;-67
2023/12/19 06:10:19;;;;;;;;;18.00;14.00;;;;;;;;5016854;28;45229;-67
2023/12/19 06:12:44;;;;;;;;;13.75;13.75;;;;;;;;5016973;28;45412;-67
2023/12/19 06:15:13;;;;;;;;;17.75;16.25;;;;;;;;5017306;28;45229;-67
2023/12/19 06:17:46;;;;;;;;;21.25;13.75;;;;;;;;5017131;28;46237;-67
2023/12/19 06:20:11;;;;;;;;;18.00;13.50;;;;;;;;5016635;28;45451;-68
2023/12/19 06:22:36;;;;;;;;;21.00;14.33;;;;;;;;5015072;28;45349;-67
2023/12/19 06:25:02;;;;;;;;;20.50;14.25;;;;;;;;5032564;28;45536;-67
2023/12/19 06:27:27;;;;;;;;;19.00;15.25;;;;;;;;5016867;28;46833;-68
2023/12/19 06:29:53;;;;;;;;;17.25;15.75;;;;;;;;5013504;28;45518;-69
2023/12/19 06:32:19;;;;;;;;;19.75;13.00;;;;;;;;5012180;28;45412;-69
2023/12/19 06:34:44;;;;;;;;;17.67;17.67;;;;;;;;5016778;28;45405;-69
2023/12/19 06:37:09;;;;;;;;;20.33;17.33;;;;;;;;5015741;28;45490;-68
2023/12/19 06:39:36;;;;;;;;;18.00;15.33;;;;;;;;5015895;28;45376;-69
2023/12/19 06:42:01;;;;;;;;;22.00;16.25;;;;;;;;5032032;28;45511;-67
2023/12/19 06:44:26;;;;;;;;;18.75;17.25;;;;;;;;5016973;28;45475;-66
2023/12/19 06:46:52;;;;;;;;;19.25;15.25;;;;;;;;5016119;28;46029;-69
2023/12/19 06:49:17;;;;;;;;;24.00;17.67;;;;;;;;5016366;28;45484;-68
2023/12/19 06:51:43;;;;;;;;;26.50;16.75;;;;;;;;5030302;28;45500;-67
2023/12/19 06:54:08;;;;;;;;;21.50;16.50;;;;;;;;5010420;28;45386;-66
2023/12/19 06:56:33;;;;;;;;;21.25;16.75;;;;;;;;5028307;28;47692;-67
2023/12/19 06:59:00;;;;;;;;;21.33;13.67;;;;;;;;5016220;28;45258;-69
2023/12/19 07:01:26;;;;;;;;;18.75;17.00;;;;;;;;5015655;28;45218;-67
2023/12/19 07:03:51;;;;;;;;;24.75;19.00;;;;;;;;5016271;28;45451;-68
2023/12/19 07:06:16;;;;;;;;;8.00;8.00;;;;;;;;5013786;28;46078;-67
2023/12/19 07:08:42;;;;;;;;;20.50;17.00;;;;;;;;5015271;28;45459;-67
2023/12/19 07:11:07;;;;;;;;;23.00;16.75;;;;;;;;5016133;28;45332;-67
2023/12/19 07:13:32;;;;;;;;;19.25;17.25;;;;;;;;5016046;28;45641;-66
2023/12/19 07:15:58;;;;;;;;;24.00;19.00;;;;;;;;5016753;28;46767;-67
2023/12/19 07:18:23;;;;;;;;;17.00;13.00;;;;;;;;5014839;28;45431;-67
2023/12/19 07:20:48;;;;;;;;;21.33;16.67;;;;;;;;5016559;28;45347;-67
2023/12/19 07:23:13;;;;;;;;;22.33;13.67;;;;;;;;5016132;28;45328;-69
2023/12/19 07:25:39;;;;;;;;;19.33;13.33;;;;;;;;5014994;28;46633;-68
2023/12/19 07:28:04;;;;;;;;;23.00;15.00;;;;;;;;5005659;28;45512;-68
2023/12/19 07:30:29;;;;;;;;;24.00;17.25;;;;;;;;5017989;28;45482;-71
2023/12/19 07:32:54;;;;;;;;;24.67;16.00;;;;;;;;5017452;28;45334;-68
2023/12/19 07:35:20;;;;;;;;;18.75;13.25;;;;;;;;5016504;28;46545;-67
2023/12/19 07:37:45;;;;;;;;;32.25;25.75;;;;;;;;5015191;28;45495;-66
2023/12/19 07:40:11;;;;;;;;;24.75;18.50;;;;;;;;5008961;28;45619;-66
2023/12/19 07:42:36;;;;;;;;;19.00;17.25;;;;;;;;5014338;28;45646;-68
2023/12/19 07:45:02;;;;;;;;;22.33;17.00;;;;;;;;5003358;28;46288;-66
2023/12/19 07:47:28;;;;;;;;;23.00;18.75;;;;;;;;5007469;28;45559;-67
2023/12/19 07:49:53;;;;;;;;;11.25;8.75;;;;;;;;5006940;28;46717;-71
2023/12/19 07:52:18;;;;;;;;;23.25;18.25;;;;;;;;5010684;28;45543;-72
2023/12/19 07:54:43;;;;;;;;;19.00;16.67;;;;;;;;5010647;28;46209;-68
2023/12/19 07:57:09;;;;;;;;;17.33;16.33;;;;;;;;5013565;28;45528;-69
2023/12/19 07:59:35;;;;;;;;;19.25;17.75;;;;;;;;5014212;28;45543;-68
2023/12/19 08:02:00;;;;;;;;;22.50;21.00;;;;;;;;5010158;28;46859;-70
2023/12/19 08:04:25;;;;;;;;;23.33;16.33;;;;;;;;5013830;28;45645;-68
2023/12/19 08:06:50;;;;;;;;;19.67;17.00;;;;;;;;5012488;28;47270;-68
2023/12/19 08:09:15;;;;;;;;;18.00;17.33;;;;;;;;5010795;28;45439;-68
2023/12/19 08:11:40;;;;;;;;;19.67;17.00;;;;;;;;5014630;28;45465;-70
2023/12/19 08:14:07;;;;;;;;;19.50;17.50;;;;;;;;5009503;28;46564;-69
2023/12/19 08:16:32;;;;;;;;;21.00;17.75;;;;;;;;5015442;28;45500;-68
2023/12/19 08:18:57;;;;;;;;;19.33;14.67;;;;;;;;5014375;28;45343;-68
2023/12/19 08:21:22;;;;;;;;;15.33;15.33;;;;;;;;5014746;28;45492;-70
2023/12/19 08:23:48;;;;;;;;;20.00;12.67;;;;;;;;5014418;28;46241;-70
2023/12/19 08:26:13;;;;;;;;;21.50;17.25;;;;;;;;5014380;28;45480;-69
2023/12/19 08:28:38;;;;;;;;;15.50;12.75;;;;;;;;5015414;28;45380;-68
2023/12/19 08:31:03;;;;;;;;;20.00;14.67;;;;;;;;5012713;28;45756;-70
2023/12/19 08:33:29;;;;;;;;;14.75;13.25;;;;;;;;5013613;28;46210;-69
2023/12/19 08:35:54;;;;;;;;;14.75;14.75;;;;;;;;5012998;28;45505;-69
2023/12/19 08:38:19;;;;;;;;;19.75;14.75;;;;;;;;5014866;28;45546;-70
2023/12/19 08:40:45;;;;;;;;;18.33;16.33;;;;;;;;5013947;28;45428;-69
2023/12/19 08:43:10;;;;;;;;;18.75;16.75;;;;;;;;5028222;28;47791;-69
2023/12/19 08:45:35;;;;;;;;;17.25;13.75;;;;;;;;5011092;28;46296;-70
2023/12/19 08:48:01;;;;;;;;;17.25;14.00;;;;;;;;5016239;28;45524;-71
2023/12/19 08:50:26;;;;;;;;;16.75;13.00;;;;;;;;5016511;28;45519;-70
2023/12/19 08:52:52;;;;;;;;;17.33;13.00;;;;;;;;5014632;28;46192;-70
2023/12/19 08:55:18;;;;;;;;;19.75;17.00;;;;;;;;5014716;28;45633;-69
2023/12/19 08:57:44;;;;;;;;;21.33;14.00;;;;;;;;5016494;28;45477;-69
2023/12/19 09:00:13;;;;;;;;;18.00;16.75;;;;;;;;5017568;28;45485;-70
2023/12/19 09:02:39;;;;;;;;;19.00;15.50;;;;;;;;5016621;28;46642;-69
2023/12/19 09:05:04;;;;;;;;;17.25;13.25;;;;;;;;5014794;28;45486;-68
2023/12/19 09:07:29;;;;;;;;;20.50;17.00;;;;;;;;5023556;28;45625;-68
2023/12/19 09:09:55;;;;;;;;;24.25;13.75;;;;;;;;5016934;28;45546;-68
2023/12/19 09:12:21;;;;;;;;;19.75;16.50;;;;;;;;5014234;28;45746;-71
2023/12/19 09:14:46;;;;;;;;;20.75;16.00;;;;;;;;5016637;28;46418;-68
2023/12/19 09:17:11;;;;;;;;;24.00;16.00;;;;;;;;5016342;28;45492;-71
2023/12/19 09:19:37;;;;;;;;;21.33;17.00;;;;;;;;5014699;28;45487;-70
2023/12/19 09:22:03;;;;;;;;;20.75;15.50;;;;;;;;5018084;28;45998;-69
2023/12/19 09:24:30;;;;;;;;;13.50;13.50;;;;;;;;5016522;28;45704;-68
2023/12/19 09:26:56;;;;;;;;;22.50;17.50;;;;;;;;5016106;28;45500;-68
2023/12/19 09:29:23;;;;;;;;;20.00;14.50;;;;;;;;5018919;28;45472;-69
2023/12/19 09:31:48;;;;;;;;;15.50;15.50;;;;;;;;5016374;28;46745;-71
2023/12/19 09:34:13;;;;;;;;;24.00;18.50;;;;;;;;5013763;28;45512;-67
2023/12/19 09:36:38;;;;;;;;;14.00;14.00;;;;;;;;5016216;28;45351;-68
2023/12/19 09:39:03;;;;;;;;;20.33;18.00;;;;;;;;5029388;28;45716;-69
2023/12/19 09:41:29;;;;;;;;;15.33;15.00;;;;;;;;5015876;28;46177;-70
2023/12/19 09:43:54;;;;;;;;;22.75;17.00;;;;;;;;5015202;28;45510;-68
2023/12/19 09:46:19;;;;;;;;;20.00;18.00;;;;;;;;5015914;28;45535;-69
2023/12/19 09:48:46;;;;;;;;;14.75;13.50;;;;;;;;5014407;28;45616;-66
2023/12/19 09:51:19;;;;;;;;;16.75;15.50;;;;;;;;5016348;28;45415;-68
2023/12/19 09:53:46;;;;;;;;;13.75;13.75;;;;;;;;5017171;28;45659;-66
2023/12/19 09:56:11;;;;;;;;;18.75;14.00;;;;;;;;5016835;28;45552;-69
2023/12/19 09:58:37;;;;;;;;;18.75;14.75;;;;;;;;5015160;28;45599;-70
2023/12/19 10:01:02;;;;;;;;;19.50;14.75;;;;;;;;5015667;28;46783;-70
2023/12/19 10:03:28;;;;;;;;;17.75;16.50;;;;;;;;5015230;28;45648;-69
2023/12/19 10:05:53;;;;;;;;;20.75;14.75;;;;;;;;5015353;28;45496;-69
2023/12/19 10:08:19;;;;;;;;;22.50;16.25;;;;;;;;5016443;28;45459;-67
2023/12/19 10:10:54;;;;;;;;;18.25;14.75;;;;;;;;5014444;28;46793;-67
2023/12/19 10:13:27;;;;;;;;;19.25;14.75;;;;;;;;5029254;28;46478;-70
2023/12/19 10:15:58;;;;;;;;;15.00;15.00;;;;;;;;5008902;28;45497;-68
2023/12/19 10:18:23;;;;;;;;;18.00;13.75;;;;;;;;5018152;28;45575;-67
2023/12/19 10:20:48;;;;;;;;;15.00;13.33;;;;;;;;5015199;28;45924;-70
2023/12/19 10:23:19;;;;;;;;;17.00;15.00;;;;;;;;5014251;28;45553;-69
2023/12/19 10:25:51;;;;;;;;;16.25;12.00;;;;;;;;5017241;28;45578;-67
2023/12/19 10:28:16;;;;;;;;;21.00;15.00;;;;;;;;5016501;28;45396;-67
2023/12/19 10:30:42;;;;;;;;;16.25;15.25;;;;;;;;5015419;28;46188;-66
2023/12/19 10:33:08;;;;;;;;;17.75;14.75;;;;;;;;5019287;28;45596;-72
2023/12/19 10:35:40;;;;;;;;;13.50;13.50;;;;;;;;5012652;28;45548;-69
2023/12/19 10:38:05;;;;;;;;;14.25;13.75;;;;;;;;5015302;28;45559;-69
2023/12/19 10:40:31;;;;;;;;;11.25;11.25;;;;;;;;5014690;28;46508;-67
2023/12/19 10:42:57;;;;;;;;;13.00;13.00;;;;;;;;5017516;28;45412;-67
2023/12/19 10:45:24;;;;;;;;;19.25;14.00;;;;;;;;5015645;28;45520;-71
2023/12/19 10:47:49;;;;;;;;;13.50;12.00;;;;;;;;5017721;28;45471;-70
2023/12/19 10:50:14;;;;;;;;;15.50;13.50;;;;;;;;5015749;28;45969;-69
2023/12/19 10:52:42;;;;;;;;;14.75;13.25;;;;;;;;5015649;28;45432;-69
2023/12/19 10:55:11;;;;;;;;;16.75;10.50;;;;;;;;5014354;28;45504;-69
2023/12/19 10:57:37;;;;;;;;;17.75;13.50;;;;;;;;5000601;28;45543;-69
2023/12/19 11:00:09;;;;;;;;;16.25;13.25;;;;;;;;5013216;28;45515;-68
2023/12/19 11:02:35;;;;;;;;;14.25;10.25;;;;;;;;5008768;28;45858;-69
2023/12/19 11:05:09;;;;;;;;;16.25;12.25;;;;;;;;5006688;28;45425;-71
2023/12/19 11:07:34;;;;;;;;;12.25;10.50;;;;;;;;5007274;28;45552;-69
2023/12/19 11:10:04;;;;;;;;;15.75;11.25;;;;;;;;5003310;28;46464;-72
2023/12/19 11:12:31;;;;;;;;;11.75;9.75;;;;;;;;5005293;28;45545;-68
2023/12/19 11:14:56;;;;;;;;;15.50;12.50;;;;;;;;5011007;28;45519;-70
2023/12/19 11:17:41;;;;;;;;;15.25;14.75;;;;;;;;5014042;28;45514;-70
2023/12/19 11:20:15;;;;;;;;;14.00;8.25;;;;;;;;5007431;28;47160;-69
2023/12/19 11:23:19;;;;;;;;;20.00;13.75;;;;;;;;5015706;28;45368;-70
2023/12/19 11:25:47;;;;;;;;;14.75;13.00;;;;;;;;4971999;28;45434;-69
2023/12/19 11:28:14;;;;;;;;;14.50;11.25;;;;;;;;4973057;28;45448;-70
2023/12/19 11:30:43;;;;;;;;;14.75;13.25;;;;;;;;4992155;28;45768;-69
2023/12/19 11:33:11;;;;;;;;;14.00;13.25;;;;;;;;5015051;28;45349;-70
2023/12/19 11:35:36;;;;;;;;;17.25;14.75;;;;;;;;5013950;28;45541;-70
2023/12/19 11:38:26;;;;;;;;;13.25;12.25;;;;;;;;5016784;28;45523;-71
2023/12/19 11:40:56;;;;;;;;;14.25;11.75;;;;;;;;5014097;28;45455;-70
2023/12/19 11:43:25;;;;;;;;;18.75;14.25;;;;;;;;5015419;28;45639;-71
2023/12/19 11:45:50;;;;;;;;;12.33;10.67;;;;;;;;5013898;28;45530;-71
2023/12/19 11:48:35;;;;;;;;;13.25;13.25;;;;;;;;5015170;28;45562;-74
2023/12/19 11:51:00;;;;;;;;;17.00;14.00;;;;;;;;5013777;28;47123;-69
2023/12/19 11:53:25;;;;;;;;;17.50;12.75;;;;;;;;5018625;28;45423;-71
2023/12/19 11:56:00;;;;;;;;;15.67;13.00;;;;;;;;5014348;28;45841;-70
2023/12/19 11:58:26;;;;;;;;;13.75;11.00;;;;;;;;5012674;28;45614;-67
2023/12/19 12:00:59;;;;;;;;;16.50;10.50;;;;;;;;5012467;28;46604;-67
2023/12/19 12:03:24;;;;;;;;;11.00;11.00;;;;;;;;5014887;28;45601;-69
2023/12/19 12:05:50;;;;;;;;;13.00;11.50;;;;;;;;5013816;28;45364;-67
2023/12/19 12:08:15;;;;;;;;;18.00;14.50;;;;;;;;5014719;28;45596;-67
2023/12/19 12:10:40;;;;;;;;;18.50;13.50;;;;;;;;5012302;28;45649;-68
2023/12/19 12:13:05;;;;;;;;;17.00;14.75;;;;;;;;5015960;28;45302;-68
2023/12/19 12:15:30;;;;;;;;;14.00;10.25;;;;;;;;5015432;28;45345;-70
2023/12/19 12:18:02;;;;;;;;;13.25;9.25;;;;;;;;5015255;28;45573;-69
2023/12/19 12:20:31;;;;;;;;;13.00;11.00;;;;;;;;5016440;28;46040;-69
2023/12/19 12:22:57;;;;;;;;;15.00;13.25;;;;;;;;5018309;28;45559;-68
2023/12/19 12:25:22;;;;;;;;;14.00;12.25;;;;;;;;5024196;28;45478;-69
2023/12/19 12:27:48;;;;;;;;;14.25;12.75;;;;;;;;5019364;28;45372;-70
2023/12/19 12:30:13;;;;;;;;;20.25;13.00;;;;;;;;5017626;28;47009;-69
2023/12/19 12:32:40;;;;;;;;;14.25;11.75;;;;;;;;5016747;28;45555;-71
2023/12/19 12:35:28;;;;;;;;;16.00;13.75;;;;;;;;5017272;28;45476;-70
2023/12/19 12:38:17;;;;;;;;;15.75;15.25;;;;;;;;5012684;28;45484;-71
2023/12/19 12:40:54;;;;;;;;;16.75;15.00;;;;;;;;5016059;28;47386;-70
2023/12/19 12:43:49;;;;;;;;;15.50;14.25;;;;;;;;5016358;28;45444;-70
2023/12/19 12:46:16;;;;;;;;;11.50;11.50;;;;;;;;5015988;28;45438;-69
2023/12/19 12:48:59;;;;;;;;;13.25;11.00;;;;;;;;5016947;28;45491;-69
2023/12/19 12:51:24;;;;;;;;;18.50;11.00;;;;;;;;5015740;28;45512;-70
2023/12/19 12:53:53;;;;;;;;;10.50;10.50;;;;;;;;5017055;28;45475;-68
2023/12/19 12:56:19;;;;;;;;;14.00;11.25;;;;;;;;5016590;28;45310;-71
2023/12/19 12:58:44;;;;;;;;;16.00;12.50;;;;;;;;5017943;28;45765;-68
2023/12/19 13:01:09;;;;;;;;;18.25;13.50;;;;;;;;5015562;28;45991;-71
2023/12/19 13:03:35;;;;;;;;;12.33;12.33;;;;;;;;5016303;28;45559;-70
2023/12/19 13:06:01;;;;;;;;;15.00;13.50;;;;;;;;5011507;28;45475;-69
2023/12/19 13:08:29;;;;;;;;;15.25;10.00;;;;;;;;5005904;28;45524;-69
2023/12/19 13:10:56;;;;;;;;;14.50;10.50;;;;;;;;5009343;28;46764;-71
2023/12/19 13:13:21;;;;;;;;;14.50;10.00;;;;;;;;5006948;28;46430;-71
2023/12/19 13:15:46;;;;;;;;;12.50;10.25;;;;;;;;5006823;28;46372;-69
2023/12/19 13:18:11;;;;;;;;;13.75;12.50;;;;;;;;5008207;28;45447;-70
2023/12/19 13:20:37;;;;;;;;;11.25;4.00;;;;;;;;5012343;28;46918;-68
2023/12/19 13:23:06;;;;;;;;;11.25;11.25;;;;;;;;5007179;28;45527;-68
2023/12/19 13:25:31;;;;;;;;;9.75;9.00;;;;;;;;5007017;28;45587;-68
2023/12/19 13:27:59;;;;;;;;;12.00;10.00;;;;;;;;5016779;28;45404;-68
2023/12/19 13:30:25;;;;;;;;;12.00;10.50;;;;;;;;5014910;28;45823;-70
2023/12/19 13:32:50;;;;;;;;;16.00;9.75;;;;;;;;5027928;28;45447;-72
2023/12/19 13:35:15;;;;;;;;;11.00;10.00;;;;;;;;5015346;28;45531;-69
2023/12/19 13:37:40;;;;;;;;;15.67;10.00;;;;;;;;5014407;28;45545;-70
2023/12/19 13:40:09;;;;;;;;;11.00;11.00;;;;;;;;5011593;28;46463;-69
2023/12/19 13:42:35;;;;;;;;;6.75;5.00;;;;;;;;5014196;28;45415;-69
2023/12/19 13:45:00;;;;;;;;;9.00;9.00;;;;;;;;5012475;28;45464;-70
2023/12/19 13:47:25;;;;;;;;;14.00;13.33;;;;;;;;5017668;28;45492;-68
2023/12/19 13:49:52;;;;;;;;;11.00;11.00;;;;;;;;5030977;28;46338;-69
2023/12/19 13:52:17;;;;;;;;;14.25;10.50;;;;;;;;5011963;28;45540;-68
2023/12/19 13:54:42;;;;;;;;;9.00;8.00;;;;;;;;5015710;28;45312;-69
2023/12/19 13:57:07;;;;;;;;;7.25;7.25;;;;;;;;5016884;28;45463;-68
2023/12/19 13:59:37;;;;;;;;;11.00;10.00;;;;;;;;5015195;28;45840;-68
2023/12/19 14:02:02;;;;;;;;;16.50;12.75;;;;;;;;5015081;28;45598;-68
2023/12/19 14:04:27;;;;;;;;;12.75;12.75;;;;;;;;5015648;28;45400;-69
2023/12/19 14:06:52;;;;;;;;;11.67;11.33;;;;;;;;5012340;28;45627;-70
2023/12/19 14:09:19;;;;;;;;;11.00;9.67;;;;;;;;5015381;28;45673;-70
2023/12/19 14:11:47;;;;;;;;;17.33;13.33;;;;;;;;5015293;28;45482;-68
2023/12/19 14:14:12;;;;;;;;;15.00;12.25;;;;;;;;5016060;28;45495;-70
2023/12/19 14:16:37;;;;;;;;;11.75;10.00;;;;;;;;5014549;28;46329;-69